createdAt,value
2017-07-24T00:00:40.858Z,3.30
2017-07-24T00:03:08.418Z,3.15
2017-07-24T00:05:36.796Z,3.45
2017-07-24T00:08:05.649Z,3.45
2017-07-24T00:10:33.221Z,3.33
2017-07-24T00:13:01.493Z,3.50
2017-07-24T00:15:29.777Z,3.35
2017-07-24T00:17:57.579Z,3.37
2017-07-24T00:20:25.105Z,2.83
2017-07-24T00:22:52.641Z,3.22
2017-07-24T00:25:20.193Z,3.33
2017-07-24T00:27:48.020Z,3.58
2017-07-24T00:30:15.514Z,3.62
2017-07-24T00:32:43.053Z,3.10
2017-07-24T00:35:10.552Z,3.83
2017-07-24T00:37:38.133Z,3.42
2017-07-24T00:40:05.626Z,2.87
2017-07-24T00:55:38.042Z,3.17
2017-07-24T00:58:05.549Z,2.55
2017-07-24T01:00:33.900Z,3.67
2017-07-24T01:03:01.453Z,3.50
2017-07-24T01:05:29.035Z,3.20
2017-07-24T01:07:56.858Z,3.20
2017-07-24T01:10:24.425Z,3.50
2017-07-24T01:12:52.176Z,3.67
2017-07-24T01:15:19.688Z,2.78
2017-07-24T01:17:48.093Z,2.85
2017-07-24T01:20:15.621Z,2.95
2017-07-24T01:22:43.433Z,3.45
2017-07-24T01:25:11.505Z,3.03
2017-07-24T01:27:39.120Z,3.10
2017-07-24T01:30:07.693Z,2.95
2017-07-24T01:32:35.404Z,3.80
2017-07-24T01:35:03.150Z,3.35
2017-07-24T01:37:30.730Z,3.08
2017-07-24T01:39:58.921Z,3.85
2017-07-24T01:42:26.496Z,3.40
2017-07-24T01:44:54.036Z,3.08
2017-07-24T01:47:21.554Z,2.92
2017-07-24T01:49:49.078Z,2.90
2017-07-24T01:52:16.583Z,3.35
2017-07-24T01:54:44.121Z,3.12
2017-07-24T01:57:11.830Z,2.40
2017-07-24T01:59:39.734Z,3.53
2017-07-24T02:02:07.541Z,2.62
2017-07-24T02:04:35.069Z,3.50
2017-07-24T02:07:03.149Z,2.80
2017-07-24T02:09:30.929Z,3.10
2017-07-24T02:11:58.496Z,3.10
2017-07-24T02:14:26.129Z,2.75
2017-07-24T02:16:55.121Z,3.15
2017-07-24T02:19:22.893Z,3.10
2017-07-24T02:21:51.349Z,3.53
2017-07-24T02:24:18.916Z,3.00
2017-07-24T02:26:46.792Z,3.90
2017-07-24T02:29:14.644Z,3.33
2017-07-24T02:31:42.924Z,3.25
2017-07-24T02:34:10.937Z,3.97
2017-07-24T02:36:39.309Z,2.87
2017-07-24T02:39:07.608Z,2.78
2017-07-24T02:41:35.113Z,2.50
2017-07-24T02:44:02.960Z,2.95
2017-07-24T02:46:30.505Z,3.22
2017-07-24T02:48:58.021Z,2.97
2017-07-24T02:51:26.301Z,4.85
2017-07-24T02:53:55.501Z,5.82
2017-07-24T02:56:23.824Z,6.50
2017-07-24T02:58:51.393Z,8.23
2017-07-24T03:01:19.902Z,5.72
2017-07-24T03:03:48.491Z,4.85
2017-07-24T03:06:16.754Z,4.78
2017-07-24T03:08:46.288Z,4.57
2017-07-24T03:11:14.066Z,4.78
2017-07-24T03:13:43.812Z,4.40
2017-07-24T03:16:11.561Z,4.65
2017-07-24T03:18:39.057Z,4.18
2017-07-24T03:21:06.580Z,3.78
2017-07-24T03:23:34.107Z,4.03
2017-07-24T03:26:01.681Z,4.10
2017-07-24T03:28:29.536Z,3.78
2017-07-24T03:30:57.105Z,3.50
2017-07-24T03:33:24.809Z,2.97
2017-07-24T03:35:53.170Z,3.15
2017-07-24T03:38:20.974Z,3.28
2017-07-24T03:40:48.468Z,3.10
2017-07-24T03:43:17.350Z,3.35
2017-07-24T03:45:45.056Z,3.72
2017-07-24T03:48:13.365Z,3.00
2017-07-24T03:50:40.865Z,3.78
2017-07-24T03:53:08.474Z,3.40
2017-07-24T03:55:36.037Z,3.25
2017-07-24T03:58:04.221Z,3.95
2017-07-24T04:00:31.860Z,3.20
2017-07-24T04:02:59.517Z,3.10
2017-07-24T04:05:27.033Z,3.45
2017-07-24T04:07:54.613Z,2.85
2017-07-24T04:10:22.952Z,3.35
2017-07-24T04:12:51.097Z,3.50
2017-07-24T04:15:18.609Z,3.12
2017-07-24T04:17:47.423Z,3.10
2017-07-24T04:20:14.940Z,3.08
2017-07-24T04:22:43.029Z,2.95
2017-07-24T04:25:11.405Z,2.72
2017-07-24T04:27:39.665Z,3.15
2017-07-24T04:30:07.278Z,3.20
2017-07-24T04:32:34.869Z,3.10
2017-07-24T04:35:02.866Z,2.80
2017-07-24T04:37:31.280Z,2.35
2017-07-24T04:39:58.798Z,2.20
2017-07-24T04:42:27.713Z,2.92
2017-07-24T04:44:55.302Z,2.40
2017-07-24T04:47:23.046Z,2.67
2017-07-24T04:49:51.328Z,2.50
2017-07-24T04:52:19.191Z,2.60
2017-07-24T04:54:46.701Z,2.97
2017-07-24T04:57:15.044Z,3.12
2017-07-24T04:59:42.545Z,2.92
2017-07-24T05:02:10.044Z,1.90
2017-07-24T05:04:37.749Z,2.30
2017-07-24T05:07:05.273Z,2.55
2017-07-24T05:09:32.840Z,2.50
2017-07-24T05:12:00.365Z,2.37
2017-07-24T05:14:29.048Z,2.25
2017-07-24T05:16:56.840Z,2.40
2017-07-24T05:19:24.586Z,2.58
2017-07-24T05:21:52.230Z,2.33
2017-07-24T05:24:19.944Z,2.70
2017-07-24T05:26:48.382Z,3.30
2017-07-24T05:29:15.957Z,2.28
2017-07-24T05:31:43.608Z,1.98
2017-07-24T05:34:12.060Z,1.87
2017-07-24T05:36:39.946Z,2.25
2017-07-24T05:39:07.656Z,3.10
2017-07-24T05:41:35.964Z,1.65
2017-07-24T05:44:03.629Z,2.08
2017-07-24T05:46:31.201Z,2.00
2017-07-24T05:48:59.048Z,1.15
2017-07-24T05:51:26.573Z,1.50
2017-07-24T05:53:54.333Z,1.30
2017-07-24T05:56:22.072Z,1.30
2017-07-24T05:58:49.664Z,1.47
2017-07-24T06:01:17.328Z,1.80
2017-07-24T06:03:45.950Z,1.63
2017-07-24T06:06:13.459Z,1.30
2017-07-24T06:08:41.061Z,1.70
2017-07-24T06:11:08.585Z,1.60
2017-07-24T06:13:36.466Z,1.50
2017-07-24T06:16:04.285Z,1.20
2017-07-24T06:18:31.802Z,1.50
2017-07-24T06:20:59.513Z,1.07
2017-07-24T06:23:27.129Z,1.47
2017-07-24T06:25:54.707Z,1.00
2017-07-24T06:28:22.265Z,1.40
2017-07-24T06:30:49.760Z,1.30
2017-07-24T06:33:17.604Z,1.30
2017-07-24T06:35:45.163Z,1.20
2017-07-24T06:38:12.846Z,1.20
2017-07-24T06:40:40.402Z,0.90
2017-07-24T06:43:07.906Z,1.40
2017-07-24T06:45:36.241Z,1.60
2017-07-24T06:48:03.849Z,1.10
2017-07-24T06:50:32.137Z,1.30
2017-07-24T06:53:01.061Z,1.20
2017-07-24T06:55:29.024Z,1.10
2017-07-24T06:57:56.588Z,1.40
2017-07-24T07:00:24.423Z,1.10
2017-07-24T07:02:52.297Z,1.17
2017-07-24T07:05:20.044Z,1.23
2017-07-24T07:07:47.569Z,1.20
2017-07-24T07:10:15.735Z,1.33
2017-07-24T07:12:43.256Z,1.70
2017-07-24T07:15:10.851Z,1.20
2017-07-24T07:17:38.368Z,1.62
2017-07-24T07:20:07.034Z,1.17
2017-07-24T07:22:34.661Z,1.35
2017-07-24T07:25:02.274Z,1.00
2017-07-24T07:27:29.945Z,1.00
2017-07-24T07:29:57.820Z,1.50
2017-07-24T07:32:25.362Z,1.27
2017-07-24T07:34:52.896Z,1.47
2017-07-24T07:37:20.425Z,1.25
2017-07-24T07:39:47.958Z,1.15
2017-07-24T07:42:15.558Z,0.90
2017-07-24T07:44:43.553Z,1.60
2017-07-24T07:47:11.098Z,1.00
2017-07-24T07:49:38.620Z,1.27
2017-07-24T07:52:06.888Z,1.05
2017-07-24T07:54:34.411Z,1.17
2017-07-24T07:57:01.936Z,1.00
2017-07-24T07:59:29.456Z,1.35
2017-07-24T08:01:57.794Z,1.30
2017-07-24T08:04:25.437Z,1.00
2017-07-24T08:06:53.526Z,1.10
2017-07-24T08:09:21.057Z,1.20
2017-07-24T08:11:48.792Z,1.15
2017-07-24T08:14:17.463Z,1.50
2017-07-24T08:16:45.241Z,1.10
2017-07-24T08:19:14.308Z,1.50
2017-07-24T08:21:42.250Z,1.45
2017-07-24T08:24:09.909Z,1.73
2017-07-24T08:26:37.680Z,1.10
2017-07-24T08:29:05.234Z,1.40
2017-07-24T08:31:32.736Z,1.10
2017-07-24T08:34:01.048Z,1.20
2017-07-24T08:36:28.615Z,1.08
2017-07-24T08:38:56.141Z,0.70
2017-07-24T08:41:23.686Z,0.90
2017-07-24T08:43:51.972Z,0.90
2017-07-24T08:46:19.481Z,1.47
2017-07-24T08:48:48.848Z,1.37
2017-07-24T08:51:16.479Z,1.00
2017-07-24T08:53:43.995Z,0.90
2017-07-24T08:56:11.499Z,1.40
2017-07-24T08:58:39.017Z,1.10
2017-07-24T09:01:06.697Z,0.90
2017-07-24T09:03:35.096Z,1.02
2017-07-24T09:06:02.636Z,1.42
2017-07-24T09:08:30.316Z,0.88
2017-07-24T09:10:57.996Z,1.10
2017-07-24T09:13:25.759Z,1.25
2017-07-24T09:15:53.339Z,1.58
2017-07-24T09:18:21.454Z,1.80
2017-07-24T09:20:49.012Z,1.70
2017-07-24T09:23:17.238Z,1.23
2017-07-24T09:25:44.755Z,1.83
2017-07-24T09:31:16.941Z,2.00
2017-07-24T09:33:44.723Z,1.58
2017-07-24T09:36:12.483Z,1.65
2017-07-24T09:38:39.987Z,1.25
2017-07-24T09:41:08.236Z,1.27
2017-07-24T09:43:35.743Z,1.70
2017-07-24T09:46:03.231Z,1.45
2017-07-24T09:48:30.719Z,1.25
2017-07-24T09:50:58.560Z,1.50
2017-07-24T09:53:26.148Z,1.12
2017-07-24T09:55:53.648Z,1.40
2017-07-24T09:58:29.566Z,1.35
2017-07-24T10:03:36.592Z,1.25
2017-07-24T10:06:21.369Z,1.27
2017-07-24T10:08:48.887Z,1.35
2017-07-24T10:11:17.159Z,1.70
2017-07-24T10:13:45.117Z,1.60
2017-07-24T10:16:13.498Z,1.60
2017-07-24T10:18:41.028Z,1.37
2017-07-24T10:24:07.303Z,1.55
2017-07-24T10:26:34.819Z,1.60
2017-07-24T10:29:16.810Z,1.80
2017-07-24T10:34:38.007Z,1.97
2017-07-24T10:37:07.454Z,1.85
2017-07-24T10:42:31.557Z,1.62
2017-07-24T10:45:03.233Z,2.10
2017-07-24T10:47:30.888Z,1.73
2017-07-24T10:49:58.511Z,1.60
2017-07-24T10:52:26.119Z,1.60
2017-07-24T10:54:53.985Z,1.75
2017-07-24T10:57:21.602Z,1.75
2017-07-24T10:59:51.401Z,2.03
2017-07-24T11:02:19.968Z,1.62
2017-07-24T11:04:47.541Z,2.00
2017-07-24T11:07:15.080Z,1.70
2017-07-24T11:09:42.621Z,1.98
2017-07-24T11:12:10.129Z,1.75
2017-07-24T11:14:37.648Z,2.03
2017-07-24T11:17:05.149Z,1.80
2017-07-24T11:19:32.670Z,2.12
2017-07-24T11:22:00.174Z,1.40
2017-07-24T11:24:28.481Z,1.25
2017-07-24T11:26:55.985Z,1.87
2017-07-24T11:29:23.476Z,1.87
2017-07-24T11:31:50.992Z,1.83
2017-07-24T11:34:18.493Z,1.70
2017-07-24T11:36:46.005Z,1.30
2017-07-24T11:39:13.505Z,1.73
2017-07-24T11:41:41.025Z,1.80
2017-07-24T11:44:08.659Z,1.83
2017-07-24T11:46:36.989Z,1.62
2017-07-24T11:49:04.489Z,2.10
2017-07-24T11:51:32.009Z,2.12
2017-07-24T11:53:59.512Z,1.90
2017-07-24T11:56:27.041Z,2.05
2017-07-24T11:58:54.544Z,2.65
2017-07-24T12:01:22.065Z,2.00
2017-07-24T12:03:49.569Z,2.10
2017-07-24T12:06:17.093Z,2.17
2017-07-24T12:08:44.613Z,1.98
2017-07-24T12:11:12.116Z,2.42
2017-07-24T12:13:39.636Z,2.28
2017-07-24T12:16:07.133Z,1.58
2017-07-24T12:18:36.602Z,2.17
2017-07-24T12:21:04.175Z,1.70
2017-07-24T12:23:31.704Z,1.80
2017-07-24T12:26:02.964Z,1.80
2017-07-24T12:28:33.952Z,2.10
2017-07-24T12:31:09.222Z,2.33
2017-07-24T12:33:41.812Z,1.77
2017-07-24T12:36:12.413Z,1.70
2017-07-24T12:41:19.415Z,1.55
2017-07-24T12:43:52.211Z,2.30
2017-07-24T12:46:22.570Z,2.10
2017-07-24T12:48:54.974Z,1.98
2017-07-24T12:51:30.231Z,2.40
2017-07-24T12:54:04.862Z,2.83
2017-07-24T12:59:15.807Z,1.95
2017-07-24T13:01:49.753Z,1.98
2017-07-24T13:04:18.103Z,1.45
2017-07-24T13:06:46.000Z,1.70
2017-07-24T13:09:13.911Z,2.10
2017-07-24T13:11:48.897Z,3.00
2017-07-24T13:14:16.707Z,2.47
2017-07-24T13:16:44.962Z,3.72
2017-07-24T13:19:12.442Z,3.05
2017-07-24T13:21:40.711Z,2.90
2017-07-24T13:24:08.959Z,3.15
2017-07-24T13:26:36.700Z,2.53
2017-07-24T13:29:04.459Z,2.83
2017-07-24T13:31:31.963Z,3.03
2017-07-24T13:33:59.442Z,3.45
2017-07-24T13:36:26.955Z,3.20
2017-07-24T13:38:54.451Z,3.05
2017-07-24T13:41:22.248Z,2.12
2017-07-24T13:43:49.732Z,2.37
2017-07-24T13:46:17.467Z,2.72
2017-07-24T13:48:45.224Z,3.10
2017-07-24T13:51:12.707Z,2.33
2017-07-24T13:53:40.216Z,3.10
2017-07-24T13:56:07.699Z,2.80
2017-07-24T13:58:35.199Z,2.50
2017-07-24T14:01:03.455Z,3.00
2017-07-24T14:03:30.959Z,3.08
2017-07-24T14:05:58.438Z,2.90
2017-07-24T14:08:25.987Z,3.20
2017-07-24T14:10:53.470Z,3.80
2017-07-24T14:13:20.960Z,3.67
2017-07-24T14:15:49.233Z,2.60
2017-07-24T14:18:17.490Z,3.40
2017-07-24T14:20:45.778Z,3.55
2017-07-24T14:23:14.036Z,2.85
2017-07-24T14:25:41.535Z,2.65
2017-07-24T14:28:10.147Z,2.95
2017-07-24T14:30:37.649Z,3.45
2017-07-24T14:33:05.904Z,3.28
2017-07-24T14:35:33.403Z,3.15
2017-07-24T14:38:01.187Z,3.90
2017-07-24T14:40:28.692Z,3.10
2017-07-24T14:42:56.943Z,3.05
2017-07-24T14:45:24.447Z,3.15
2017-07-24T14:47:52.235Z,4.85
2017-07-24T14:50:20.000Z,3.85
2017-07-24T14:52:47.492Z,3.42
2017-07-24T14:55:14.975Z,3.42
2017-07-24T14:57:42.494Z,3.45
2017-07-24T15:00:09.983Z,3.97
2017-07-24T15:02:38.271Z,4.55
2017-07-24T15:05:05.764Z,4.30
2017-07-24T15:10:27.008Z,5.53
2017-07-24T15:12:54.522Z,5.93
2017-07-24T15:15:22.013Z,4.93
2017-07-24T15:17:49.526Z,4.57
2017-07-24T15:20:17.015Z,3.90
2017-07-24T15:22:44.787Z,3.80
2017-07-24T15:25:12.304Z,3.42
2017-07-24T15:27:39.847Z,3.62
2017-07-24T15:30:07.495Z,2.65
2017-07-24T15:32:35.986Z,3.10
2017-07-24T15:35:03.523Z,2.75
2017-07-24T15:37:31.807Z,4.40
2017-07-24T15:40:00.272Z,7.57
2017-07-24T15:42:27.762Z,8.50
2017-07-24T15:44:55.504Z,4.15
2017-07-24T15:47:23.000Z,1.95
2017-07-24T15:49:50.867Z,4.80
2017-07-24T15:52:18.628Z,4.25
2017-07-24T15:54:46.139Z,4.97
2017-07-24T15:57:13.667Z,5.10
2017-07-24T15:59:41.172Z,2.95
2017-07-24T16:02:08.706Z,1.80
2017-07-24T16:04:36.228Z,2.28
2017-07-24T16:07:03.742Z,2.95
2017-07-24T16:09:43.743Z,2.80
2017-07-24T16:12:11.311Z,2.83
2017-07-24T16:14:38.806Z,3.22
2017-07-24T16:17:06.320Z,3.15
2017-07-24T16:19:33.812Z,3.35
2017-07-24T16:22:01.608Z,2.97
2017-07-24T16:24:29.119Z,2.60
2017-07-24T16:26:57.644Z,5.75
2017-07-24T16:29:25.408Z,4.12
2017-07-24T16:31:52.898Z,3.40
2017-07-24T16:34:20.424Z,2.10
2017-07-24T16:36:47.928Z,2.08
2017-07-24T16:39:16.587Z,1.75
2017-07-24T16:41:44.094Z,4.37
2017-07-24T16:44:12.133Z,3.50
2017-07-24T16:46:40.146Z,2.00
2017-07-24T16:49:07.679Z,3.12
2017-07-24T16:51:35.407Z,3.00
2017-07-24T16:54:03.071Z,2.30
2017-07-24T16:56:30.764Z,1.93
2017-07-24T16:58:58.484Z,2.20
2017-07-24T17:01:26.220Z,1.80
2017-07-24T17:03:53.714Z,1.70
2017-07-24T17:06:22.208Z,2.05
2017-07-24T17:08:50.682Z,2.03
2017-07-24T17:11:18.190Z,1.85
2017-07-24T17:13:45.899Z,2.15
2017-07-24T17:16:14.187Z,1.60
2017-07-24T17:18:41.675Z,2.00
2017-07-24T17:21:09.160Z,2.30
2017-07-24T17:23:36.667Z,2.10
2017-07-24T17:26:04.162Z,1.65
2017-07-24T17:28:31.670Z,1.40
2017-07-24T17:30:59.380Z,1.70
2017-07-24T17:33:26.889Z,1.60
2017-07-24T17:35:57.248Z,1.73
2017-07-24T17:38:28.477Z,2.10
2017-07-24T17:43:48.511Z,2.67
2017-07-24T17:46:15.995Z,2.15
2017-07-24T17:48:44.291Z,2.28
2017-07-24T17:51:15.072Z,2.53
2017-07-24T18:00:50.515Z,2.55
2017-07-24T18:03:18.087Z,2.37
2017-07-24T18:06:11.585Z,2.33
2017-07-24T18:11:31.100Z,2.00
2017-07-24T18:14:01.367Z,2.20
2017-07-24T18:19:22.835Z,2.25
2017-07-24T18:21:50.617Z,2.40
2017-07-24T18:24:18.685Z,2.03
2017-07-24T18:26:46.268Z,1.95
2017-07-24T18:29:13.751Z,1.65
2017-07-24T18:31:41.244Z,1.80
2017-07-24T18:34:09.540Z,1.40
2017-07-24T18:36:37.045Z,1.73
2017-07-24T18:39:04.559Z,1.20
2017-07-24T18:41:32.051Z,1.92
2017-07-24T18:43:59.563Z,1.85
2017-07-24T18:46:30.136Z,1.65
2017-07-24T18:48:57.711Z,1.37
2017-07-24T18:51:25.219Z,1.55
2017-07-24T18:53:52.974Z,1.00
2017-07-24T18:56:20.532Z,1.60
2017-07-24T18:58:48.074Z,1.15
2017-07-24T19:01:15.630Z,1.30
2017-07-24T19:06:49.158Z,1.00
2017-07-24T19:09:16.647Z,1.20
2017-07-24T19:11:44.160Z,1.33
2017-07-24T19:14:11.669Z,1.30
2017-07-24T19:22:35.519Z,2.58
2017-07-24T19:25:03.117Z,2.90
2017-07-24T19:27:39.010Z,2.60
2017-07-24T19:30:06.880Z,2.20
2017-07-24T19:38:18.074Z,1.90
2017-07-24T19:40:47.780Z,1.80
2017-07-24T19:43:15.378Z,2.00
2017-07-24T19:45:42.948Z,2.03
2017-07-24T19:53:48.345Z,2.53
2017-07-24T20:03:54.607Z,2.28
2017-07-24T20:06:22.119Z,2.22
2017-07-24T20:11:40.844Z,2.47
2017-07-24T20:14:10.113Z,2.35
2017-07-24T20:19:37.027Z,1.67
2017-07-24T20:22:04.563Z,1.80
2017-07-24T20:24:32.074Z,1.75
2017-07-24T20:26:59.809Z,1.83
2017-07-24T20:29:27.330Z,1.60
2017-07-24T20:31:54.839Z,1.33
2017-07-24T20:43:18.913Z,1.40
2017-07-24T20:51:32.079Z,1.50
2017-07-24T20:54:01.149Z,1.25
2017-07-24T20:59:28.363Z,1.00
2017-07-24T21:05:10.980Z,1.20
